createdAt,value
2018-12-01T00:02:26.728Z,98288.98
2018-12-01T00:07:44.161Z,98289.30
2018-12-01T00:12:46.564Z,98291.61
2018-12-01T00:17:48.947Z,98300.77
2018-12-01T00:22:51.312Z,98296.33
2018-12-01T00:27:53.644Z,98295.53
2018-12-01T00:32:56.421Z,98302.38
2018-12-01T00:37:58.908Z,98302.06
2018-12-01T00:43:01.260Z,98300.42
2018-12-01T00:48:03.609Z,98299.45
2018-12-01T00:53:06.106Z,98296.50
2018-12-01T00:58:08.484Z,98295.20
2018-12-01T01:03:10.788Z,98299.94
2018-12-01T01:08:13.296Z,98308.27
2018-12-01T01:13:15.711Z,98315.47
2018-12-01T01:18:18.031Z,98316.47
2018-12-01T01:23:20.404Z,98322.18
2018-12-01T01:28:22.700Z,98314.82
2018-12-01T01:33:28.451Z,98315.30
2018-12-01T01:38:30.979Z,98311.89
2018-12-01T01:49:00.420Z,98318.09
2018-12-01T01:54:02.874Z,98325.63
2018-12-01T01:59:05.227Z,98328.72
2018-12-01T02:04:07.564Z,98331.17
2018-12-01T02:09:09.972Z,98336.09
2018-12-01T02:14:12.291Z,98326.77
2018-12-01T02:19:14.634Z,98319.74
2018-12-01T02:24:17.249Z,98320.40
2018-12-01T02:29:19.609Z,98316.47
2018-12-01T02:34:21.943Z,98317.13
2018-12-01T02:39:24.429Z,98314.52
2018-12-01T02:45:36.081Z,98319.74
2018-12-01T02:50:38.389Z,98333.48
2018-12-01T02:55:40.763Z,98329.38
2018-12-01T03:00:43.117Z,98338.06
2018-12-01T03:05:45.413Z,98337.72
2018-12-01T03:10:47.749Z,98339.37
2018-12-01T03:15:50.058Z,98339.36
2018-12-01T03:20:52.363Z,98351.14
2018-12-01T03:25:55.000Z,98352.77
2018-12-01T03:30:57.381Z,98356.69
2018-12-01T03:35:59.742Z,98351.80
2018-12-01T03:41:02.178Z,98354.89
2018-12-01T03:46:04.900Z,98359.64
2018-12-01T03:51:07.512Z,98364.23
2018-12-01T03:56:09.897Z,98360.78
2018-12-01T04:01:12.265Z,98360.30
2018-12-01T04:06:14.563Z,98356.20
2018-12-01T04:11:16.929Z,98350.62
2018-12-01T04:16:19.247Z,98343.61
2018-12-01T04:21:21.548Z,98349.97
2018-12-01T04:26:24.099Z,98349.66
2018-12-01T04:31:26.465Z,98352.45
2018-12-01T04:36:29.864Z,98358.65
2018-12-01T04:41:32.409Z,98367.98
2018-12-01T04:46:34.800Z,98362.58
2018-12-01T04:51:37.191Z,98364.70
2018-12-01T04:56:39.686Z,98369.28
2018-12-01T05:01:42.322Z,98374.17
2018-12-01T05:06:44.761Z,98378.27
2018-12-01T05:11:47.235Z,98379.41
2018-12-01T05:16:49.960Z,98374.03
2018-12-01T05:21:52.352Z,98374.16
2018-12-01T05:26:54.701Z,98391.67
2018-12-01T05:31:57.105Z,98387.08
2018-12-01T05:36:59.527Z,98398.33
2018-12-01T05:42:02.644Z,98398.02
2018-12-01T05:47:05.476Z,98401.95
2018-12-01T05:52:07.972Z,98400.17
2018-12-01T05:57:10.374Z,98401.79
2018-12-01T06:02:12.714Z,98411.77
2018-12-01T06:07:15.060Z,98413.25
2018-12-01T06:12:17.492Z,98413.09
2018-12-01T06:17:19.987Z,98414.91
2018-12-01T06:22:22.352Z,98414.44
2018-12-01T06:27:24.711Z,98416.88
2018-12-01T06:32:27.065Z,98419.50
2018-12-01T06:37:30.532Z,98425.74
2018-12-01T06:42:32.931Z,98426.70
2018-12-01T06:47:35.283Z,98435.39
2018-12-01T06:52:37.729Z,98434.91
2018-12-01T06:57:40.289Z,98430.46
2018-12-01T07:02:43.185Z,98434.56
2018-12-01T07:07:45.591Z,98436.35
2018-12-01T07:12:58.204Z,98435.05
2018-12-01T07:18:00.619Z,98449.96
2018-12-01T07:23:02.980Z,98451.41
2018-12-01T07:28:05.362Z,98446.83
2018-12-01T07:33:07.704Z,98461.75
2018-12-01T07:38:10.064Z,98458.78
2018-12-01T07:43:12.493Z,98455.84
2018-12-01T07:48:14.829Z,98468.29
2018-12-01T07:53:17.534Z,98472.88
2018-12-01T07:58:19.707Z,98472.88
2018-12-01T08:03:22.823Z,98477.77
2018-12-01T08:08:25.322Z,98480.20
2018-12-01T08:13:27.808Z,98483.96
2018-12-01T08:18:30.166Z,98464.64
2018-12-01T08:23:32.507Z,98461.34
2018-12-01T08:28:35.877Z,98449.70
2018-12-01T08:33:38.221Z,98456.88
2018-12-01T08:38:40.675Z,98456.69
2018-12-01T08:43:43.051Z,98451.76
2018-12-01T08:48:45.436Z,98454.70
2018-12-01T08:53:47.806Z,98456.66
2018-12-01T08:58:53.128Z,98450.91
2018-12-01T09:03:55.568Z,98461.51
2018-12-01T09:08:57.975Z,98459.17
2018-12-01T09:14:00.334Z,98451.25
2018-12-01T09:19:03.155Z,98454.78
2018-12-01T09:24:06.147Z,98448.30
2018-12-01T09:29:08.492Z,98444.80
2018-12-01T09:34:10.819Z,98443.12
2018-12-01T09:39:13.148Z,98449.78
2018-12-01T09:44:17.329Z,98447.28
2018-12-01T09:49:18.603Z,98438.67
2018-12-01T09:54:20.980Z,98444.20
2018-12-01T09:59:23.351Z,98446.50
2018-12-01T10:04:25.687Z,98448.39
2018-12-01T10:09:28.183Z,98443.34
2018-12-01T10:14:30.584Z,98432.70
2018-12-01T10:19:32.931Z,98427.06
2018-12-01T10:24:35.316Z,98420.59
2018-12-01T10:29:37.702Z,98416.17
2018-12-01T10:34:40.055Z,98414.08
2018-12-01T10:39:42.399Z,98402.91
2018-12-01T10:44:44.816Z,98398.56
2018-12-01T10:49:47.193Z,98388.05
2018-12-01T10:54:49.579Z,98374.70
2018-12-01T10:59:51.903Z,98380.80
2018-12-01T11:04:54.228Z,98381.56
2018-12-01T11:09:56.647Z,98373.45
2018-12-01T11:14:59.055Z,98380.61
2018-12-01T11:20:01.451Z,98378.10
2018-12-01T11:25:06.276Z,98371.61
2018-12-01T11:30:13.047Z,98371.97
2018-12-01T11:35:15.502Z,98374.10
2018-12-01T11:40:18.676Z,98367.99
2018-12-01T11:45:21.099Z,98358.21
2018-12-01T11:50:23.580Z,98362.50
2018-12-01T11:55:25.943Z,98375.53
2018-12-01T12:00:28.295Z,98367.89
2018-12-01T12:05:30.674Z,98379.97
2018-12-01T12:10:33.008Z,98391.67
2018-12-01T12:15:35.443Z,98379.27
2018-12-01T12:20:38.093Z,98373.92
2018-12-01T12:25:40.527Z,98376.27
2018-12-01T12:30:42.937Z,98383.76
2018-12-01T12:35:45.877Z,98378.81
2018-12-01T12:40:48.202Z,98382.78
2018-12-01T12:45:50.571Z,98383.02
2018-12-01T12:50:53.312Z,98365.47
2018-12-01T12:55:55.376Z,98356.76
2018-12-01T13:00:57.699Z,98349.13
2018-12-01T13:06:00.040Z,98339.34
2018-12-01T13:11:02.404Z,98331.97
2018-12-01T13:16:05.035Z,98329.83
2018-12-01T13:21:07.454Z,98321.44
2018-12-01T13:26:09.928Z,98343.73
2018-12-01T13:31:12.270Z,98347.59
2018-12-01T13:36:14.671Z,98342.11
2018-12-01T13:41:18.037Z,98335.33
2018-12-01T13:46:22.047Z,98349.95
2018-12-01T13:51:24.431Z,98352.05
2018-12-01T13:56:26.799Z,98355.21
2018-12-01T14:01:29.151Z,98363.86
2018-12-01T14:06:31.515Z,98365.93
2018-12-01T14:11:34.024Z,98367.37
2018-12-01T14:16:36.453Z,98372.99
2018-12-01T14:21:38.828Z,98378.31
2018-12-01T14:26:41.187Z,98385.01
2018-12-01T14:31:44.139Z,98391.02
2018-12-01T14:36:46.532Z,98394.66
2018-12-01T14:41:48.883Z,98393.70
2018-12-01T14:46:54.160Z,98391.13
2018-12-01T14:51:56.624Z,98384.73
2018-12-01T14:56:59.677Z,98384.30
2018-12-01T15:02:02.060Z,98385.47
2018-12-01T15:07:04.792Z,98390.30
2018-12-01T15:12:07.117Z,98383.28
2018-12-01T15:17:09.495Z,98382.84
2018-12-01T15:22:11.829Z,98370.09
2018-12-01T15:27:14.156Z,98367.61
2018-12-01T15:32:16.603Z,98357.61
2018-12-01T15:37:19.011Z,98365.05
2018-12-01T15:42:22.631Z,98363.83
2018-12-01T15:47:25.077Z,98367.25
2018-12-01T15:52:27.529Z,98361.73
2018-12-01T15:57:29.955Z,98362.64
2018-12-01T16:02:32.372Z,98360.42
2018-12-01T16:07:34.829Z,98362.52
2018-12-01T16:12:37.175Z,98357.84
2018-12-01T16:17:39.615Z,98361.70
2018-12-01T16:22:41.991Z,98368.02
2018-12-01T16:27:45.104Z,98367.38
2018-12-01T16:32:48.818Z,98362.13
2018-12-01T16:37:51.964Z,98358.36
2018-12-01T16:42:55.268Z,98358.73
2018-12-01T16:47:57.696Z,98357.13
2018-12-01T16:53:00.659Z,98364.97
2018-12-01T16:58:03.071Z,98359.10
2018-12-01T17:03:05.999Z,98344.05
2018-12-01T17:08:08.376Z,98332.08
2018-12-01T17:13:10.769Z,98317.65
2018-12-01T17:18:13.414Z,98317.65
2018-12-01T17:23:16.492Z,98299.95
2018-12-01T17:28:20.079Z,98302.58
2018-12-01T17:33:28.171Z,98289.45
2018-12-01T17:38:30.593Z,98291.67
2018-12-01T17:43:37.276Z,98283.78
2018-12-01T17:48:40.797Z,98269.97
2018-12-01T17:53:45.679Z,98262.67
2018-12-01T17:58:48.759Z,98262.00
2018-12-01T18:03:52.194Z,98246.77
2018-12-01T18:08:54.592Z,98240.03
2018-12-01T18:13:56.973Z,98224.96
2018-12-01T18:18:59.398Z,98229.94
2018-12-01T18:24:01.752Z,98225.28
2018-12-01T18:29:05.651Z,98231.08
2018-12-01T18:34:11.559Z,98219.81
2018-12-01T18:39:18.380Z,98220.88
2018-12-01T18:44:20.783Z,98206.00
2018-12-01T18:49:23.194Z,98199.47
2018-12-01T18:54:25.616Z,98200.34
2018-12-01T18:59:27.971Z,98198.77
2018-12-01T19:04:30.284Z,98202.53
2018-12-01T19:09:32.623Z,98198.27
2018-12-01T19:14:35.033Z,98198.30
2018-12-01T19:19:38.487Z,98205.19
2018-12-01T19:24:40.828Z,98201.09
2018-12-01T19:29:43.151Z,98199.32
2018-12-01T19:34:45.597Z,98199.83
2018-12-01T19:39:48.004Z,98199.67
2018-12-01T19:44:50.450Z,98183.91
2018-12-01T19:49:52.849Z,98186.33
2018-12-01T19:54:55.255Z,98177.06
2018-12-01T19:59:57.648Z,98180.12
2018-12-01T20:05:00.006Z,98177.83
2018-12-01T20:10:02.627Z,98161.53
2018-12-01T20:15:15.819Z,98157.42
2018-12-01T20:20:18.269Z,98157.05
2018-12-01T20:25:20.827Z,98147.86
2018-12-01T20:30:23.174Z,98140.85
2018-12-01T20:35:35.466Z,98133.05
2018-12-01T20:40:37.795Z,98127.56
2018-12-01T20:45:40.306Z,98132.59
2018-12-01T20:50:42.829Z,98116.48
2018-12-01T20:55:47.935Z,98097.30
2018-12-01T21:00:50.308Z,98097.11
2018-12-01T21:05:52.678Z,98089.33
2018-12-01T21:10:56.939Z,98083.77
2018-12-01T21:15:59.390Z,98086.35
2018-12-01T21:21:08.534Z,98086.35
2018-12-01T21:26:10.959Z,98075.42
2018-12-01T21:31:13.320Z,98065.45
2018-12-01T21:36:15.694Z,98073.95
2018-12-01T21:41:18.068Z,98072.11
2018-12-01T21:46:20.439Z,98067.44
2018-12-01T21:51:22.883Z,98059.70
2018-12-01T21:56:25.342Z,98043.61
2018-12-01T22:01:28.482Z,98046.81
2018-12-01T22:06:31.023Z,98035.45
2018-12-01T22:11:33.387Z,98019.18
2018-12-01T22:16:35.819Z,97999.81
2018-12-01T22:21:38.295Z,97978.47
2018-12-01T22:26:40.643Z,97974.79
2018-12-01T22:31:42.991Z,97973.05
2018-12-01T22:36:45.338Z,97978.10
2018-12-01T22:41:47.760Z,97980.14
2018-12-01T22:46:50.161Z,97974.81
2018-12-01T22:51:52.620Z,97984.25
2018-12-01T22:56:55.014Z,97973.95
2018-12-01T23:01:57.454Z,97975.41
2018-12-01T23:07:00.112Z,97973.14
2018-12-01T23:12:02.487Z,97966.86
2018-12-01T23:17:05.104Z,97963.61
2018-12-01T23:22:07.519Z,97942.34
2018-12-01T23:27:09.879Z,97937.15
2018-12-01T23:32:12.248Z,97925.69
2018-12-01T23:37:14.640Z,97914.81
2018-12-01T23:42:17.025Z,97898.00
2018-12-01T23:47:19.381Z,97892.95
2018-12-01T23:52:21.845Z,97877.88
2018-12-01T23:57:24.991Z,97867.13
